Terminal Aerodrome Forecast
Issued by NWS Brownsville, TX

Home | Current Version | Previous Version | Text Only | Print | Product List | Glossary On
Versions: 1 2 3 4 5 6 7 8 9 10 11 12 13 14
000
FTUS44 KBRO 301700
TAFBRO
TAF
KBRO 301720Z 3018/3118 VRB05KT P6SM SCT035
     FM310900 00000KT 4SM BR BKN030
      TEMPO 3112/3115 2SM -DZ BKN015 OVC030
     FM311500 01005KT P6SM -DZ BKN015=

USA.gov is the U.S. government's official web portal to all federal, state and local government web resources and services.